Piedmont Triad International Airport
KGSO : now visible

Airfield :











YOU CAN JOIN US ON...

 
LOGIN :

Register | Disclaimer

   EN    FR    IT 

 









Legend :    VFR   Marginal VFR   IFR   Intensive IFR   Very Intensive IFR
Visi :
Ceiling :
>= 8 km
>= 3000ft
5 to 8 km
1000 to 3000 ft
1500m to 5 km
500 to 1000 ft
800 to 1500m
200 to 500 ft
< 800m
< 200 ft
Symbols :   Thunderstorms  Fog  Heavy snow  Heavy precipitations  Wind > 20 kt







- Airport Elevation : 925 ft
- IATA code : GSO


KGSO - Piedmont Triad International

CURRENT METAR :
  • 261954Z 02011G16KT 10SM FEW050 13/M01 A3017 RMK AO2 SLP213 T01281006

EXPIRED METARs :
  • 261854Z 06013G18KT 10SM SCT055 13/M02 A3018 RMK AO2 SLP216 T01281017
  • 261754Z 06014G17KT 10SM FEW070 FEW250 13/M01 A3018 RMK AO2 SLP217 T01281011 10128 20078 58000

TAF KGSO
Valid from the 26 at 18:00 until the 27 at 18:00 UTC


261740Z 2618/2718 04010G18KT P6SM SCT040
FM270000 05005KT P6SM SKC
KZTL FIR / North America



MET'MAP, your aeronautical weather chart ! - Copyright ORBIFLY December 2007 - Disclaimer

ORBIFLY MET'MAP TEAM :

Programming & Development : Alexandra Zaïnal
Concept & Development : Baudouin d'Aumeries
Co-Development & Prog : Marc-Olivier Méhu
Technical & hardware support : Manuel Goepfert

Contact : metmap@orbifly.com




SOURCES & CREDITS :

   NOAA       Earth
Advisory